sensor_id;sensor_type;location;lat;lon;timestamp;P1;durP1;ratioP1;P2;durP2;ratioP2
22780;SDS011;11557;50.884;4.322;2023-05-15T00:00:04;18.15;;;8.40;;
22780;SDS011;11557;50.884;4.322;2023-05-15T00:02:31;16.67;;;10.77;;
22780;SDS011;11557;50.884;4.322;2023-05-15T00:04:59;14.80;;;9.10;;
22780;SDS011;11557;50.884;4.322;2023-05-15T00:07:25;18.02;;;10.52;;
22780;SDS011;11557;50.884;4.322;2023-05-15T00:09:51;14.45;;;9.50;;
22780;SDS011;11557;50.884;4.322;2023-05-15T00:12:17;20.25;;;10.18;;
22780;SDS011;11557;50.884;4.322;2023-05-15T00:14:42;12.65;;;10.32;;
22780;SDS011;11557;50.884;4.322;2023-05-15T00:17:08;19.15;;;10.20;;
22780;SDS011;11557;50.884;4.322;2023-05-15T00:19:34;15.77;;;8.93;;
22780;SDS011;11557;50.884;4.322;2023-05-15T00:22:00;16.55;;;8.48;;
22780;SDS011;11557;50.884;4.322;2023-05-15T00:24:26;13.52;;;9.70;;
22780;SDS011;11557;50.884;4.322;2023-05-15T00:26:51;21.63;;;9.45;;
22780;SDS011;11557;50.884;4.322;2023-05-15T00:29:17;12.00;;;9.07;;
22780;SDS011;11557;50.884;4.322;2023-05-15T00:31:43;28.70;;;12.20;;
22780;SDS011;11557;50.884;4.322;2023-05-15T00:34:09;13.43;;;8.77;;
22780;SDS011;11557;50.884;4.322;2023-05-15T00:36:34;11.80;;;8.80;;
22780;SDS011;11557;50.884;4.322;2023-05-15T00:39:00;11.50;;;8.90;;
22780;SDS011;11557;50.884;4.322;2023-05-15T00:41:26;14.27;;;7.00;;
22780;SDS011;11557;50.884;4.322;2023-05-15T00:43:56;19.73;;;8.70;;
22780;SDS011;11557;50.884;4.322;2023-05-15T00:46:22;11.48;;;7.47;;
22780;SDS011;11557;50.884;4.322;2023-05-15T00:48:49;21.95;;;9.50;;
22780;SDS011;11557;50.884;4.322;2023-05-15T00:51:16;7.45;;;6.47;;
22780;SDS011;11557;50.884;4.322;2023-05-15T00:53:42;13.63;;;9.18;;
22780;SDS011;11557;50.884;4.322;2023-05-15T00:56:08;9.65;;;7.90;;
22780;SDS011;11557;50.884;4.322;2023-05-15T00:58:37;25.75;;;8.63;;
22780;SDS011;11557;50.884;4.322;2023-05-15T01:01:03;17.05;;;8.77;;
22780;SDS011;11557;50.884;4.322;2023-05-15T01:03:30;11.20;;;9.00;;
22780;SDS011;11557;50.884;4.322;2023-05-15T01:05:56;17.27;;;8.63;;
22780;SDS011;11557;50.884;4.322;2023-05-15T01:10:51;9.30;;;5.88;;
22780;SDS011;11557;50.884;4.322;2023-05-15T01:13:21;10.38;;;7.57;;
22780;SDS011;11557;50.884;4.322;2023-05-15T01:15:49;14.00;;;8.00;;
22780;SDS011;11557;50.884;4.322;2023-05-15T01:18:15;11.00;;;5.97;;
22780;SDS011;11557;50.884;4.322;2023-05-15T01:23:45;11.02;;;6.68;;
22780;SDS011;11557;50.884;4.322;2023-05-15T01:29:51;13.00;;;6.63;;
22780;SDS011;11557;50.884;4.322;2023-05-15T01:32:49;13.27;;;7.85;;
22780;SDS011;11557;50.884;4.322;2023-05-15T01:36:11;9.52;;;6.13;;
22780;SDS011;11557;50.884;4.322;2023-05-15T01:40:46;11.02;;;7.13;;
22780;SDS011;11557;50.884;4.322;2023-05-15T01:43:17;8.02;;;6.60;;
22780;SDS011;11557;50.884;4.322;2023-05-15T01:45:46;13.90;;;8.00;;
22780;SDS011;11557;50.884;4.322;2023-05-15T01:48:12;8.35;;;7.15;;
22780;SDS011;11557;50.884;4.322;2023-05-15T01:50:42;11.93;;;6.55;;
22780;SDS011;11557;50.884;4.322;2023-05-15T01:53:10;9.07;;;7.82;;
22780;SDS011;11557;50.884;4.322;2023-05-15T01:55:38;10.88;;;7.30;;
22780;SDS011;11557;50.884;4.322;2023-05-15T01:58:05;11.13;;;7.15;;
22780;SDS011;11557;50.884;4.322;2023-05-15T02:00:31;14.55;;;8.98;;
22780;SDS011;11557;50.884;4.322;2023-05-15T02:02:57;7.88;;;7.15;;
22780;SDS011;11557;50.884;4.322;2023-05-15T02:05:24;15.95;;;9.25;;
22780;SDS011;11557;50.884;4.322;2023-05-15T02:07:51;11.57;;;7.90;;
22780;SDS011;11557;50.884;4.322;2023-05-15T02:10:17;11.10;;;7.68;;
22780;SDS011;11557;50.884;4.322;2023-05-15T02:12:43;9.88;;;8.07;;
22780;SDS011;11557;50.884;4.322;2023-05-15T02:15:10;10.73;;;9.65;;
22780;SDS011;11557;50.884;4.322;2023-05-15T02:17:37;15.30;;;7.78;;
22780;SDS011;11557;50.884;4.322;2023-05-15T02:20:03;12.75;;;7.53;;
22780;SDS011;11557;50.884;4.322;2023-05-15T02:22:33;14.60;;;9.20;;
22780;SDS011;11557;50.884;4.322;2023-05-15T02:24:58;8.70;;;6.90;;
22780;SDS011;11557;50.884;4.322;2023-05-15T02:27:31;11.60;;;8.25;;
22780;SDS011;11557;50.884;4.322;2023-05-15T02:30:19;15.00;;;8.45;;
22780;SDS011;11557;50.884;4.322;2023-05-15T02:35:48;10.23;;;9.07;;
22780;SDS011;11557;50.884;4.322;2023-05-15T02:38:25;9.52;;;7.40;;
22780;SDS011;11557;50.884;4.322;2023-05-15T02:40:54;13.15;;;8.30;;
22780;SDS011;11557;50.884;4.322;2023-05-15T02:43:21;16.67;;;6.97;;
22780;SDS011;11557;50.884;4.322;2023-05-15T02:45:47;16.67;;;8.88;;
22780;SDS011;11557;50.884;4.322;2023-05-15T02:48:13;14.82;;;8.10;;
22780;SDS011;11557;50.884;4.322;2023-05-15T02:50:39;13.80;;;8.77;;
22780;SDS011;11557;50.884;4.322;2023-05-15T02:53:06;11.57;;;8.55;;
22780;SDS011;11557;50.884;4.322;2023-05-15T02:55:33;19.40;;;10.73;;
22780;SDS011;11557;50.884;4.322;2023-05-15T02:58:00;10.02;;;8.73;;
22780;SDS011;11557;50.884;4.322;2023-05-15T03:00:27;13.35;;;11.07;;
22780;SDS011;11557;50.884;4.322;2023-05-15T03:02:53;12.48;;;9.93;;
22780;SDS011;11557;50.884;4.322;2023-05-15T03:05:19;15.13;;;9.73;;
22780;SDS011;11557;50.884;4.322;2023-05-15T03:07:45;16.48;;;8.80;;
22780;SDS011;11557;50.884;4.322;2023-05-15T03:10:11;15.35;;;10.00;;
22780;SDS011;11557;50.884;4.322;2023-05-15T03:12:37;14.52;;;10.60;;
22780;SDS011;11557;50.884;4.322;2023-05-15T03:15:03;9.68;;;8.23;;
22780;SDS011;11557;50.884;4.322;2023-05-15T03:17:30;13.32;;;11.80;;
22780;SDS011;11557;50.884;4.322;2023-05-15T03:19:56;19.58;;;10.48;;
22780;SDS011;11557;50.884;4.322;2023-05-15T03:22:21;10.40;;;8.52;;
22780;SDS011;11557;50.884;4.322;2023-05-15T03:24:47;12.07;;;8.50;;
22780;SDS011;11557;50.884;4.322;2023-05-15T03:27:14;24.27;;;10.75;;
22780;SDS011;11557;50.884;4.322;2023-05-15T03:29:40;10.38;;;8.63;;
22780;SDS011;11557;50.884;4.322;2023-05-15T03:32:06;17.00;;;13.18;;
22780;SDS011;11557;50.884;4.322;2023-05-15T03:34:31;15.35;;;11.27;;
22780;SDS011;11557;50.884;4.322;2023-05-15T03:36:57;11.98;;;9.73;;
22780;SDS011;11557;50.884;4.322;2023-05-15T03:39:23;15.02;;;9.25;;
22780;SDS011;11557;50.884;4.322;2023-05-15T03:41:49;9.30;;;7.57;;
22780;SDS011;11557;50.884;4.322;2023-05-15T03:44:14;14.18;;;9.32;;
22780;SDS011;11557;50.884;4.322;2023-05-15T03:46:40;10.75;;;8.60;;
22780;SDS011;11557;50.884;4.322;2023-05-15T03:49:05;18.42;;;8.68;;
22780;SDS011;11557;50.884;4.322;2023-05-15T03:51:31;16.10;;;9.38;;
22780;SDS011;11557;50.884;4.322;2023-05-15T03:53:57;11.48;;;8.32;;
22780;SDS011;11557;50.884;4.322;2023-05-15T03:56:23;9.95;;;8.90;;
22780;SDS011;11557;50.884;4.322;2023-05-15T03:58:48;15.73;;;9.75;;
22780;SDS011;11557;50.884;4.322;2023-05-15T04:01:14;12.68;;;7.90;;
22780;SDS011;11557;50.884;4.322;2023-05-15T04:03:40;10.60;;;6.90;;
22780;SDS011;11557;50.884;4.322;2023-05-15T04:06:05;16.23;;;10.63;;
22780;SDS011;11557;50.884;4.322;2023-05-15T04:08:31;20.05;;;10.45;;
22780;SDS011;11557;50.884;4.322;2023-05-15T04:10:57;10.93;;;8.52;;
22780;SDS011;11557;50.884;4.322;2023-05-15T04:13:23;11.32;;;8.35;;
22780;SDS011;11557;50.884;4.322;2023-05-15T04:15:48;13.93;;;9.18;;
22780;SDS011;11557;50.884;4.322;2023-05-15T04:18:14;10.32;;;8.93;;
22780;SDS011;11557;50.884;4.322;2023-05-15T04:20:40;10.90;;;7.75;;
22780;SDS011;11557;50.884;4.322;2023-05-15T04:23:05;13.93;;;8.40;;
22780;SDS011;11557;50.884;4.322;2023-05-15T04:25:31;9.27;;;7.00;;
22780;SDS011;11557;50.884;4.322;2023-05-15T04:27:57;12.63;;;8.50;;
22780;SDS011;11557;50.884;4.322;2023-05-15T04:30:22;15.02;;;9.43;;
22780;SDS011;11557;50.884;4.322;2023-05-15T04:32:48;8.98;;;7.90;;
22780;SDS011;11557;50.884;4.322;2023-05-15T04:35:15;11.60;;;7.43;;
22780;SDS011;11557;50.884;4.322;2023-05-15T04:37:42;10.40;;;8.60;;
22780;SDS011;11557;50.884;4.322;2023-05-15T04:40:09;12.45;;;7.43;;
22780;SDS011;11557;50.884;4.322;2023-05-15T04:42:36;13.38;;;9.50;;
22780;SDS011;11557;50.884;4.322;2023-05-15T04:45:02;12.50;;;8.20;;
22780;SDS011;11557;50.884;4.322;2023-05-15T04:47:29;10.57;;;9.13;;
22780;SDS011;11557;50.884;4.322;2023-05-15T04:49:56;13.02;;;8.30;;
22780;SDS011;11557;50.884;4.322;2023-05-15T04:52:21;13.45;;;7.32;;
22780;SDS011;11557;50.884;4.322;2023-05-15T04:54:47;16.70;;;8.30;;
22780;SDS011;11557;50.884;4.322;2023-05-15T04:57:15;11.57;;;7.95;;
22780;SDS011;11557;50.884;4.322;2023-05-15T04:59:41;11.60;;;7.15;;
22780;SDS011;11557;50.884;4.322;2023-05-15T05:02:08;12.38;;;8.88;;
22780;SDS011;11557;50.884;4.322;2023-05-15T05:04:34;10.98;;;7.03;;
22780;SDS011;11557;50.884;4.322;2023-05-15T05:07:00;16.00;;;7.78;;
22780;SDS011;11557;50.884;4.322;2023-05-15T05:09:28;12.68;;;8.07;;
22780;SDS011;11557;50.884;4.322;2023-05-15T05:11:54;12.60;;;8.25;;
22780;SDS011;11557;50.884;4.322;2023-05-15T05:14:20;12.48;;;9.55;;
22780;SDS011;11557;50.884;4.322;2023-05-15T05:16:46;11.30;;;8.55;;
22780;SDS011;11557;50.884;4.322;2023-05-15T05:19:11;11.65;;;10.13;;
22780;SDS011;11557;50.884;4.322;2023-05-15T05:21:37;10.02;;;8.27;;
22780;SDS011;11557;50.884;4.322;2023-05-15T05:24:03;11.52;;;8.70;;
22780;SDS011;11557;50.884;4.322;2023-05-15T05:26:29;14.07;;;8.23;;
22780;SDS011;11557;50.884;4.322;2023-05-15T05:28:55;16.38;;;8.57;;
22780;SDS011;11557;50.884;4.322;2023-05-15T05:31:21;9.55;;;8.27;;
22780;SDS011;11557;50.884;4.322;2023-05-15T05:33:46;16.23;;;9.02;;
22780;SDS011;11557;50.884;4.322;2023-05-15T05:36:13;10.07;;;7.60;;
22780;SDS011;11557;50.884;4.322;2023-05-15T05:38:40;16.88;;;9.63;;
22780;SDS011;11557;50.884;4.322;2023-05-15T05:41:06;12.07;;;9.27;;
22780;SDS011;11557;50.884;4.322;2023-05-15T05:43:32;10.60;;;8.63;;
22780;SDS011;11557;50.884;4.322;2023-05-15T05:45:57;14.48;;;7.70;;
22780;SDS011;11557;50.884;4.322;2023-05-15T05:48:23;11.95;;;7.65;;
22780;SDS011;11557;50.884;4.322;2023-05-15T05:50:50;14.40;;;8.50;;
22780;SDS011;11557;50.884;4.322;2023-05-15T05:53:16;12.52;;;8.15;;
22780;SDS011;11557;50.884;4.322;2023-05-15T05:55:42;13.50;;;8.02;;
22780;SDS011;11557;50.884;4.322;2023-05-15T05:58:08;14.50;;;8.63;;
22780;SDS011;11557;50.884;4.322;2023-05-15T06:00:34;10.68;;;7.40;;
22780;SDS011;11557;50.884;4.322;2023-05-15T06:03:00;15.05;;;9.05;;
22780;SDS011;11557;50.884;4.322;2023-05-15T06:05:26;13.82;;;7.38;;
22780;SDS011;11557;50.884;4.322;2023-05-15T06:07:53;8.65;;;7.38;;
22780;SDS011;11557;50.884;4.322;2023-05-15T06:10:19;9.10;;;7.68;;
22780;SDS011;11557;50.884;4.322;2023-05-15T06:12:45;11.88;;;8.75;;
22780;SDS011;11557;50.884;4.322;2023-05-15T06:15:11;8.65;;;7.68;;
22780;SDS011;11557;50.884;4.322;2023-05-15T06:17:37;12.18;;;8.80;;
22780;SDS011;11557;50.884;4.322;2023-05-15T06:20:03;10.73;;;7.13;;
22780;SDS011;11557;50.884;4.322;2023-05-15T06:22:35;11.80;;;9.25;;
22780;SDS011;11557;50.884;4.322;2023-05-15T06:25:02;7.25;;;5.97;;
22780;SDS011;11557;50.884;4.322;2023-05-15T06:27:29;12.80;;;8.15;;
22780;SDS011;11557;50.884;4.322;2023-05-15T06:29:55;13.00;;;9.52;;
22780;SDS011;11557;50.884;4.322;2023-05-15T06:32:21;9.63;;;8.00;;
22780;SDS011;11557;50.884;4.322;2023-05-15T06:34:46;7.32;;;6.63;;
22780;SDS011;11557;50.884;4.322;2023-05-15T06:37:12;7.95;;;6.88;;
22780;SDS011;11557;50.884;4.322;2023-05-15T06:39:38;13.80;;;8.65;;
22780;SDS011;11557;50.884;4.322;2023-05-15T06:42:04;10.63;;;7.40;;
22780;SDS011;11557;50.884;4.322;2023-05-15T06:44:30;13.93;;;8.00;;
22780;SDS011;11557;50.884;4.322;2023-05-15T06:46:56;7.70;;;7.05;;
22780;SDS011;11557;50.884;4.322;2023-05-15T06:49:22;12.38;;;8.30;;
22780;SDS011;11557;50.884;4.322;2023-05-15T06:51:50;14.38;;;9.93;;
22780;SDS011;11557;50.884;4.322;2023-05-15T06:54:15;11.73;;;8.48;;
22780;SDS011;11557;50.884;4.322;2023-05-15T06:56:41;12.30;;;7.82;;
22780;SDS011;11557;50.884;4.322;2023-05-15T06:59:07;12.40;;;7.95;;
22780;SDS011;11557;50.884;4.322;2023-05-15T07:01:33;10.10;;;8.88;;
22780;SDS011;11557;50.884;4.322;2023-05-15T07:03:59;9.05;;;7.10;;
22780;SDS011;11557;50.884;4.322;2023-05-15T07:06:25;10.40;;;7.47;;
22780;SDS011;11557;50.884;4.322;2023-05-15T07:08:51;10.98;;;6.70;;
22780;SDS011;11557;50.884;4.322;2023-05-15T07:11:16;16.83;;;8.77;;
22780;SDS011;11557;50.884;4.322;2023-05-15T07:13:42;15.18;;;6.78;;
22780;SDS011;11557;50.884;4.322;2023-05-15T07:16:08;11.00;;;6.72;;
22780;SDS011;11557;50.884;4.322;2023-05-15T07:18:35;14.40;;;8.60;;
22780;SDS011;11557;50.884;4.322;2023-05-15T07:21:01;13.10;;;6.35;;
22780;SDS011;11557;50.884;4.322;2023-05-15T07:23:26;11.60;;;8.32;;
22780;SDS011;11557;50.884;4.322;2023-05-15T07:25:53;10.05;;;7.90;;
22780;SDS011;11557;50.884;4.322;2023-05-15T07:28:19;11.30;;;7.72;;
22780;SDS011;11557;50.884;4.322;2023-05-15T07:30:45;10.05;;;8.43;;
22780;SDS011;11557;50.884;4.322;2023-05-15T07:33:10;11.98;;;6.85;;
22780;SDS011;11557;50.884;4.322;2023-05-15T07:35:36;27.50;;;7.25;;
22780;SDS011;11557;50.884;4.322;2023-05-15T07:38:02;12.13;;;8.32;;
22780;SDS011;11557;50.884;4.322;2023-05-15T07:40:28;10.35;;;7.30;;
22780;SDS011;11557;50.884;4.322;2023-05-15T07:42:53;11.30;;;6.03;;
22780;SDS011;11557;50.884;4.322;2023-05-15T07:45:19;11.15;;;8.05;;
22780;SDS011;11557;50.884;4.322;2023-05-15T07:47:45;17.92;;;7.18;;
22780;SDS011;11557;50.884;4.322;2023-05-15T07:50:12;13.88;;;6.35;;
22780;SDS011;11557;50.884;4.322;2023-05-15T07:52:38;19.98;;;10.63;;
22780;SDS011;11557;50.884;4.322;2023-05-15T07:55:05;12.80;;;6.90;;
22780;SDS011;11557;50.884;4.322;2023-05-15T07:57:31;14.25;;;7.30;;
22780;SDS011;11557;50.884;4.322;2023-05-15T07:59:57;11.52;;;7.10;;
22780;SDS011;11557;50.884;4.322;2023-05-15T08:02:23;11.05;;;6.93;;
22780;SDS011;11557;50.884;4.322;2023-05-15T08:04:49;8.07;;;7.22;;
22780;SDS011;11557;50.884;4.322;2023-05-15T08:07:14;9.55;;;7.45;;
22780;SDS011;11557;50.884;4.322;2023-05-15T08:09:40;13.25;;;7.20;;
22780;SDS011;11557;50.884;4.322;2023-05-15T08:12:16;8.00;;;7.25;;
22780;SDS011;11557;50.884;4.322;2023-05-15T08:14:46;11.90;;;7.18;;
22780;SDS011;11557;50.884;4.322;2023-05-15T08:17:16;14.05;;;8.32;;
22780;SDS011;11557;50.884;4.322;2023-05-15T08:19:42;13.32;;;7.93;;
22780;SDS011;11557;50.884;4.322;2023-05-15T08:22:08;18.55;;;7.80;;
22780;SDS011;11557;50.884;4.322;2023-05-15T08:24:34;9.35;;;8.23;;
22780;SDS011;11557;50.884;4.322;2023-05-15T08:26:59;10.48;;;8.15;;
22780;SDS011;11557;50.884;4.322;2023-05-15T08:29:25;13.10;;;7.43;;
22780;SDS011;11557;50.884;4.322;2023-05-15T08:31:51;8.63;;;7.70;;
22780;SDS011;11557;50.884;4.322;2023-05-15T08:34:17;15.13;;;8.40;;
22780;SDS011;11557;50.884;4.322;2023-05-15T08:36:43;12.57;;;8.63;;
22780;SDS011;11557;50.884;4.322;2023-05-15T08:39:09;12.07;;;8.05;;
22780;SDS011;11557;50.884;4.322;2023-05-15T08:44:47;8.82;;;5.90;;
22780;SDS011;11557;50.884;4.322;2023-05-15T08:47:13;11.02;;;7.93;;
22780;SDS011;11557;50.884;4.322;2023-05-15T08:52:11;12.93;;;7.88;;
22780;SDS011;11557;50.884;4.322;2023-05-15T08:54:37;13.98;;;8.27;;
22780;SDS011;11557;50.884;4.322;2023-05-15T08:57:04;13.30;;;9.18;;
22780;SDS011;11557;50.884;4.322;2023-05-15T08:59:31;17.13;;;8.23;;
22780;SDS011;11557;50.884;4.322;2023-05-15T09:01:57;10.40;;;8.43;;
22780;SDS011;11557;50.884;4.322;2023-05-15T09:04:24;9.88;;;6.53;;
22780;SDS011;11557;50.884;4.322;2023-05-15T09:06:49;9.52;;;6.63;;
22780;SDS011;11557;50.884;4.322;2023-05-15T09:09:17;10.27;;;6.97;;
22780;SDS011;11557;50.884;4.322;2023-05-15T09:11:44;12.13;;;7.25;;
22780;SDS011;11557;50.884;4.322;2023-05-15T09:14:12;9.82;;;7.03;;
22780;SDS011;11557;50.884;4.322;2023-05-15T09:16:38;11.38;;;7.25;;
22780;SDS011;11557;50.884;4.322;2023-05-15T09:19:05;7.63;;;5.55;;
22780;SDS011;11557;50.884;4.322;2023-05-15T09:21:31;14.57;;;8.45;;
22780;SDS011;11557;50.884;4.322;2023-05-15T09:26:59;10.65;;;6.75;;
22780;SDS011;11557;50.884;4.322;2023-05-15T09:29:29;9.80;;;7.68;;
22780;SDS011;11557;50.884;4.322;2023-05-15T09:32:00;6.82;;;6.00;;
22780;SDS011;11557;50.884;4.322;2023-05-15T09:34:37;11.13;;;7.25;;
22780;SDS011;11557;50.884;4.322;2023-05-15T09:37:04;8.23;;;6.05;;
22780;SDS011;11557;50.884;4.322;2023-05-15T09:39:32;7.78;;;5.88;;
22780;SDS011;11557;50.884;4.322;2023-05-15T09:42:05;12.38;;;6.53;;
22780;SDS011;11557;50.884;4.322;2023-05-15T09:44:32;7.03;;;5.63;;
22780;SDS011;11557;50.884;4.322;2023-05-15T09:46:58;7.20;;;6.20;;
22780;SDS011;11557;50.884;4.322;2023-05-15T09:49:26;7.07;;;5.63;;
22780;SDS011;11557;50.884;4.322;2023-05-15T09:51:53;7.50;;;5.78;;
22780;SDS011;11557;50.884;4.322;2023-05-15T09:54:22;10.95;;;6.28;;
22780;SDS011;11557;50.884;4.322;2023-05-15T09:56:49;14.02;;;7.45;;
22780;SDS011;11557;50.884;4.322;2023-05-15T09:59:18;8.10;;;5.38;;
22780;SDS011;11557;50.884;4.322;2023-05-15T10:01:48;6.05;;;5.00;;
22780;SDS011;11557;50.884;4.322;2023-05-15T10:04:15;26.80;;;6.20;;
22780;SDS011;11557;50.884;4.322;2023-05-15T10:06:42;5.05;;;4.60;;
22780;SDS011;11557;50.884;4.322;2023-05-15T10:09:12;14.57;;;6.60;;
22780;SDS011;11557;50.884;4.322;2023-05-15T10:11:39;14.25;;;6.10;;
22780;SDS011;11557;50.884;4.322;2023-05-15T10:14:08;9.23;;;5.90;;
22780;SDS011;11557;50.884;4.322;2023-05-15T10:16:35;11.75;;;5.43;;
22780;SDS011;11557;50.884;4.322;2023-05-15T10:19:02;9.15;;;6.45;;
22780;SDS011;11557;50.884;4.322;2023-05-15T10:21:30;9.70;;;5.72;;
22780;SDS011;11557;50.884;4.322;2023-05-15T10:23:58;7.95;;;6.57;;
22780;SDS011;11557;50.884;4.322;2023-05-15T10:26:34;11.45;;;7.45;;
22780;SDS011;11557;50.884;4.322;2023-05-15T10:29:11;18.42;;;7.88;;
22780;SDS011;11557;50.884;4.322;2023-05-15T10:31:40;8.50;;;6.32;;
22780;SDS011;11557;50.884;4.322;2023-05-15T10:34:07;8.77;;;6.32;;
22780;SDS011;11557;50.884;4.322;2023-05-15T10:36:34;13.40;;;7.80;;
22780;SDS011;11557;50.884;4.322;2023-05-15T10:39:02;14.82;;;7.88;;
22780;SDS011;11557;50.884;4.322;2023-05-15T10:41:29;14.10;;;6.70;;
22780;SDS011;11557;50.884;4.322;2023-05-15T10:44:00;15.65;;;7.20;;
22780;SDS011;11557;50.884;4.322;2023-05-15T10:46:27;15.80;;;7.85;;
22780;SDS011;11557;50.884;4.322;2023-05-15T10:48:55;9.15;;;6.95;;
22780;SDS011;11557;50.884;4.322;2023-05-15T10:51:25;11.20;;;8.15;;
22780;SDS011;11557;50.884;4.322;2023-05-15T10:53:53;18.65;;;10.82;;
22780;SDS011;11557;50.884;4.322;2023-05-15T10:56:19;17.80;;;8.35;;
22780;SDS011;11557;50.884;4.322;2023-05-15T10:58:50;15.30;;;10.13;;
22780;SDS011;11557;50.884;4.322;2023-05-15T11:01:25;10.00;;;8.27;;
22780;SDS011;11557;50.884;4.322;2023-05-15T11:04:03;13.32;;;9.50;;
22780;SDS011;11557;50.884;4.322;2023-05-15T11:06:29;11.07;;;8.10;;
22780;SDS011;11557;50.884;4.322;2023-05-15T11:09:31;14.15;;;9.40;;
22780;SDS011;11557;50.884;4.322;2023-05-15T11:14:19;10.50;;;8.73;;
22780;SDS011;11557;50.884;4.322;2023-05-15T11:19:34;14.35;;;9.23;;
22780;SDS011;11557;50.884;4.322;2023-05-15T11:22:00;12.73;;;7.80;;
22780;SDS011;11557;50.884;4.322;2023-05-15T11:24:45;11.85;;;8.13;;
22780;SDS011;11557;50.884;4.322;2023-05-15T11:27:39;10.30;;;7.55;;
22780;SDS011;11557;50.884;4.322;2023-05-15T11:30:11;14.32;;;7.88;;
22780;SDS011;11557;50.884;4.322;2023-05-15T11:35:26;16.92;;;11.77;;
22780;SDS011;11557;50.884;4.322;2023-05-15T11:38:03;19.02;;;11.15;;
22780;SDS011;11557;50.884;4.322;2023-05-15T11:40:45;25.10;;;13.90;;
22780;SDS011;11557;50.884;4.322;2023-05-15T11:43:18;15.88;;;10.27;;
22780;SDS011;11557;50.884;4.322;2023-05-15T11:45:49;19.67;;;13.52;;
22780;SDS011;11557;50.884;4.322;2023-05-15T11:48:17;19.73;;;8.70;;
22780;SDS011;11557;50.884;4.322;2023-05-15T11:50:43;11.57;;;8.05;;
22780;SDS011;11557;50.884;4.322;2023-05-15T11:53:11;21.20;;;11.45;;
22780;SDS011;11557;50.884;4.322;2023-05-15T11:55:38;12.63;;;9.88;;
22780;SDS011;11557;50.884;4.322;2023-05-15T11:58:16;9.95;;;8.70;;
22780;SDS011;11557;50.884;4.322;2023-05-15T12:00:43;16.85;;;9.43;;
22780;SDS011;11557;50.884;4.322;2023-05-15T12:03:14;19.33;;;10.57;;
22780;SDS011;11557;50.884;4.322;2023-05-15T12:05:41;11.52;;;9.98;;
22780;SDS011;11557;50.884;4.322;2023-05-15T12:08:10;14.40;;;11.02;;
22780;SDS011;11557;50.884;4.322;2023-05-15T12:10:40;13.85;;;9.95;;
22780;SDS011;11557;50.884;4.322;2023-05-15T12:13:07;20.23;;;11.45;;
22780;SDS011;11557;50.884;4.322;2023-05-15T12:15:37;30.73;;;12.77;;
22780;SDS011;11557;50.884;4.322;2023-05-15T12:18:04;14.73;;;8.88;;
22780;SDS011;11557;50.884;4.322;2023-05-15T12:20:34;19.77;;;11.00;;
22780;SDS011;11557;50.884;4.322;2023-05-15T12:23:05;18.23;;;13.20;;
22780;SDS011;11557;50.884;4.322;2023-05-15T12:25:32;32.25;;;11.85;;
22780;SDS011;11557;50.884;4.322;2023-05-15T12:28:00;20.25;;;9.90;;
22780;SDS011;11557;50.884;4.322;2023-05-15T12:30:29;21.75;;;12.15;;
22780;SDS011;11557;50.884;4.322;2023-05-15T12:33:06;31.48;;;12.55;;
22780;SDS011;11557;50.884;4.322;2023-05-15T12:35:40;19.48;;;10.82;;
22780;SDS011;11557;50.884;4.322;2023-05-15T12:38:07;8.52;;;6.95;;
22780;SDS011;11557;50.884;4.322;2023-05-15T12:40:37;14.55;;;10.57;;
22780;SDS011;11557;50.884;4.322;2023-05-15T12:43:06;11.80;;;9.05;;
22780;SDS011;11557;50.884;4.322;2023-05-15T12:45:33;13.07;;;7.88;;
22780;SDS011;11557;50.884;4.322;2023-05-15T12:48:02;12.57;;;7.47;;
22780;SDS011;11557;50.884;4.322;2023-05-15T12:50:30;14.27;;;6.90;;
22780;SDS011;11557;50.884;4.322;2023-05-15T12:52:57;10.50;;;5.68;;
22780;SDS011;11557;50.884;4.322;2023-05-15T12:55:36;7.60;;;5.28;;
22780;SDS011;11557;50.884;4.322;2023-05-15T12:58:08;6.70;;;5.25;;
22780;SDS011;11557;50.884;4.322;2023-05-15T13:00:35;9.85;;;4.47;;
22780;SDS011;11557;50.884;4.322;2023-05-15T13:03:03;7.38;;;4.57;;
22780;SDS011;11557;50.884;4.322;2023-05-15T13:05:33;6.05;;;2.97;;
22780;SDS011;11557;50.884;4.322;2023-05-15T13:08:01;2.63;;;1.67;;
22780;SDS011;11557;50.884;4.322;2023-05-15T13:10:30;1.02;;;1.00;;
22780;SDS011;11557;50.884;4.322;2023-05-15T13:12:57;0.20;;;0.20;;
22780;SDS011;11557;50.884;4.322;2023-05-15T13:17:58;0.65;;;0.65;;
22780;SDS011;11557;50.884;4.322;2023-05-15T13:20:26;1.20;;;1.10;;
22780;SDS011;11557;50.884;4.322;2023-05-15T13:22:54;1.30;;;0.65;;
22780;SDS011;11557;50.884;4.322;2023-05-15T13:25:20;0.47;;;0.47;;
22780;SDS011;11557;50.884;4.322;2023-05-15T13:27:46;0.20;;;0.20;;
22780;SDS011;11557;50.884;4.322;2023-05-15T13:30:13;0.70;;;0.65;;
22780;SDS011;11557;50.884;4.322;2023-05-15T13:32:39;0.57;;;0.57;;
22780;SDS011;11557;50.884;4.322;2023-05-15T13:35:05;1.58;;;0.93;;
22780;SDS011;11557;50.884;4.322;2023-05-15T13:37:31;0.47;;;0.47;;
22780;SDS011;11557;50.884;4.322;2023-05-15T13:39:56;0.30;;;0.30;;
22780;SDS011;11557;50.884;4.322;2023-05-15T13:42:22;0.30;;;0.30;;
22780;SDS011;11557;50.884;4.322;2023-05-15T13:44:48;0.93;;;0.50;;
22780;SDS011;11557;50.884;4.322;2023-05-15T13:47:14;0.25;;;0.25;;
22780;SDS011;11557;50.884;4.322;2023-05-15T13:49:40;0.30;;;0.30;;
22780;SDS011;11557;50.884;4.322;2023-05-15T13:52:05;0.20;;;0.20;;
22780;SDS011;11557;50.884;4.322;2023-05-15T13:54:31;3.33;;;1.35;;
22780;SDS011;11557;50.884;4.322;2023-05-15T13:56:58;0.70;;;0.50;;
22780;SDS011;11557;50.884;4.322;2023-05-15T13:59:24;0.80;;;0.70;;
22780;SDS011;11557;50.884;4.322;2023-05-15T14:01:50;1.45;;;0.82;;
22780;SDS011;11557;50.884;4.322;2023-05-15T14:04:16;0.30;;;0.30;;
22780;SDS011;11557;50.884;4.322;2023-05-15T14:06:42;3.55;;;1.38;;
22780;SDS011;11557;50.884;4.322;2023-05-15T14:09:08;1.80;;;1.17;;
22780;SDS011;11557;50.884;4.322;2023-05-15T14:11:34;1.13;;;0.95;;
22780;SDS011;11557;50.884;4.322;2023-05-15T14:14:00;2.17;;;0.32;;
22780;SDS011;11557;50.884;4.322;2023-05-15T14:16:25;2.22;;;1.42;;
22780;SDS011;11557;50.884;4.322;2023-05-15T14:18:51;1.20;;;1.10;;
22780;SDS011;11557;50.884;4.322;2023-05-15T14:21:17;0.43;;;0.43;;
22780;SDS011;11557;50.884;4.322;2023-05-15T14:23:43;1.52;;;1.08;;
22780;SDS011;11557;50.884;4.322;2023-05-15T14:26:09;0.20;;;0.20;;
22780;SDS011;11557;50.884;4.322;2023-05-15T14:28:34;1.35;;;1.10;;
22780;SDS011;11557;50.884;4.322;2023-05-15T14:31:00;0.60;;;0.60;;
22780;SDS011;11557;50.884;4.322;2023-05-15T14:33:26;4.97;;;0.93;;
22780;SDS011;11557;50.884;4.322;2023-05-15T14:35:52;1.08;;;0.98;;
22780;SDS011;11557;50.884;4.322;2023-05-15T14:38:18;0.45;;;0.45;;
22780;SDS011;11557;50.884;4.322;2023-05-15T14:40:43;0.93;;;0.75;;
22780;SDS011;11557;50.884;4.322;2023-05-15T14:43:09;0.57;;;0.57;;
22780;SDS011;11557;50.884;4.322;2023-05-15T14:45:35;1.20;;;1.02;;
22780;SDS011;11557;50.884;4.322;2023-05-15T14:48:01;0.77;;;0.75;;
22780;SDS011;11557;50.884;4.322;2023-05-15T14:50:26;0.63;;;0.38;;
22780;SDS011;11557;50.884;4.322;2023-05-15T14:52:52;0.88;;;0.85;;
22780;SDS011;11557;50.884;4.322;2023-05-15T14:55:18;1.05;;;1.00;;
22780;SDS011;11557;50.884;4.322;2023-05-15T14:57:47;1.90;;;0.85;;
22780;SDS011;11557;50.884;4.322;2023-05-15T15:00:15;1.23;;;1.05;;
22780;SDS011;11557;50.884;4.322;2023-05-15T15:02:42;1.48;;;1.35;;
22780;SDS011;11557;50.884;4.322;2023-05-15T15:05:08;0.65;;;0.55;;
22780;SDS011;11557;50.884;4.322;2023-05-15T15:10:25;0.68;;;0.68;;
22780;SDS011;11557;50.884;4.322;2023-05-15T15:12:51;0.70;;;0.60;;
22780;SDS011;11557;50.884;4.322;2023-05-15T15:15:18;0.73;;;0.73;;